sensor_id;sensor_type;location;lat;lon;timestamp;temperature;humidity
47600;DHT22;33323;52.124;6.018;2022-07-10T00:00:46;15.30;93.70
47600;DHT22;33323;52.124;6.018;2022-07-10T00:03:13;15.30;94.30
47600;DHT22;33323;52.124;6.018;2022-07-10T00:05:41;15.30;94.00
47600;DHT22;33323;52.124;6.018;2022-07-10T00:08:08;15.30;94.20
47600;DHT22;33323;52.124;6.018;2022-07-10T00:10:35;15.10;94.70
47600;DHT22;33323;52.124;6.018;2022-07-10T00:13:02;15.20;93.90
47600;DHT22;33323;52.124;6.018;2022-07-10T00:15:30;15.20;94.00
47600;DHT22;33323;52.124;6.018;2022-07-10T00:17:58;15.00;94.30
47600;DHT22;33323;52.124;6.018;2022-07-10T00:20:26;14.80;94.70
47600;DHT22;33323;52.124;6.018;2022-07-10T00:22:53;14.60;95.10
47600;DHT22;33323;52.124;6.018;2022-07-10T00:25:27;14.60;95.50
47600;DHT22;33323;52.124;6.018;2022-07-10T00:27:54;14.50;95.70
47600;DHT22;33323;52.124;6.018;2022-07-10T00:30:21;14.40;96.10
47600;DHT22;33323;52.124;6.018;2022-07-10T00:32:47;14.40;96.10
47600;DHT22;33323;52.124;6.018;2022-07-10T00:35:14;14.30;96.60
47600;DHT22;33323;52.124;6.018;2022-07-10T00:37:41;14.40;96.30
47600;DHT22;33323;52.124;6.018;2022-07-10T00:40:09;14.30;96.70
47600;DHT22;33323;52.124;6.018;2022-07-10T00:42:36;14.40;96.40
47600;DHT22;33323;52.124;6.018;2022-07-10T00:45:04;14.40;96.70
47600;DHT22;33323;52.124;6.018;2022-07-10T00:47:33;14.40;96.60
47600;DHT22;33323;52.124;6.018;2022-07-10T00:50:00;14.40;96.70
47600;DHT22;33323;52.124;6.018;2022-07-10T00:52:27;14.40;97.00
47600;DHT22;33323;52.124;6.018;2022-07-10T00:54:54;14.40;96.60
47600;DHT22;33323;52.124;6.018;2022-07-10T00:57:22;14.50;96.70
47600;DHT22;33323;52.124;6.018;2022-07-10T00:59:49;14.50;97.10
47600;DHT22;33323;52.124;6.018;2022-07-10T01:02:17;14.50;96.50
47600;DHT22;33323;52.124;6.018;2022-07-10T01:04:44;14.60;96.00
47600;DHT22;33323;52.124;6.018;2022-07-10T01:07:11;14.60;96.30
47600;DHT22;33323;52.124;6.018;2022-07-10T01:09:38;14.60;96.70
47600;DHT22;33323;52.124;6.018;2022-07-10T01:12:06;14.60;96.70
47600;DHT22;33323;52.124;6.018;2022-07-10T01:14:34;14.60;96.60
47600;DHT22;33323;52.124;6.018;2022-07-10T01:17:04;14.50;96.80
47600;DHT22;33323;52.124;6.018;2022-07-10T01:19:31;14.50;97.20
47600;DHT22;33323;52.124;6.018;2022-07-10T01:21:58;14.40;96.80
47600;DHT22;33323;52.124;6.018;2022-07-10T01:24:26;14.30;97.30
47600;DHT22;33323;52.124;6.018;2022-07-10T01:26:53;14.20;97.00
47600;DHT22;33323;52.124;6.018;2022-07-10T01:29:22;14.10;97.40
47600;DHT22;33323;52.124;6.018;2022-07-10T01:31:49;13.90;97.90
47600;DHT22;33323;52.124;6.018;2022-07-10T01:34:22;14.10;97.90
47600;DHT22;33323;52.124;6.018;2022-07-10T01:36:49;13.90;97.90
47600;DHT22;33323;52.124;6.018;2022-07-10T01:39:16;13.80;98.20
47600;DHT22;33323;52.124;6.018;2022-07-10T01:41:43;13.80;97.90
47600;DHT22;33323;52.124;6.018;2022-07-10T01:44:10;13.70;98.50
47600;DHT22;33323;52.124;6.018;2022-07-10T01:46:47;13.60;98.60
47600;DHT22;33323;52.124;6.018;2022-07-10T01:49:15;13.60;99.00
47600;DHT22;33323;52.124;6.018;2022-07-10T01:51:42;13.50;99.30
47600;DHT22;33323;52.124;6.018;2022-07-10T01:54:11;13.60;99.20
47600;DHT22;33323;52.124;6.018;2022-07-10T01:56:38;13.60;98.80
47600;DHT22;33323;52.124;6.018;2022-07-10T01:59:06;13.60;99.20
47600;DHT22;33323;52.124;6.018;2022-07-10T02:01:33;13.60;98.80
47600;DHT22;33323;52.124;6.018;2022-07-10T02:04:00;13.60;98.90
47600;DHT22;33323;52.124;6.018;2022-07-10T02:06:46;13.50;98.40
47600;DHT22;33323;52.124;6.018;2022-07-10T02:09:13;13.40;98.90
47600;DHT22;33323;52.124;6.018;2022-07-10T02:11:41;13.40;99.40
47600;DHT22;33323;52.124;6.018;2022-07-10T02:14:08;13.40;99.40
47600;DHT22;33323;52.124;6.018;2022-07-10T02:16:35;13.40;99.40
47600;DHT22;33323;52.124;6.018;2022-07-10T02:19:03;13.50;99.40
47600;DHT22;33323;52.124;6.018;2022-07-10T02:21:30;13.40;99.50
47600;DHT22;33323;52.124;6.018;2022-07-10T02:23:57;13.50;99.60
47600;DHT22;33323;52.124;6.018;2022-07-10T02:26:24;13.50;99.80
47600;DHT22;33323;52.124;6.018;2022-07-10T02:28:51;13.60;99.90
47600;DHT22;33323;52.124;6.018;2022-07-10T02:31:18;13.60;99.90
47600;DHT22;33323;52.124;6.018;2022-07-10T02:33:45;13.60;99.90
47600;DHT22;33323;52.124;6.018;2022-07-10T02:36:12;13.70;99.90
47600;DHT22;33323;52.124;6.018;2022-07-10T02:38:39;13.70;99.90
47600;DHT22;33323;52.124;6.018;2022-07-10T02:41:07;13.80;99.60
47600;DHT22;33323;52.124;6.018;2022-07-10T02:43:35;13.70;99.60
47600;DHT22;33323;52.124;6.018;2022-07-10T02:46:02;13.70;99.80
47600;DHT22;33323;52.124;6.018;2022-07-10T02:48:29;13.60;99.80
47600;DHT22;33323;52.124;6.018;2022-07-10T02:50:56;13.60;99.90
47600;DHT22;33323;52.124;6.018;2022-07-10T02:53:25;13.60;99.90
47600;DHT22;33323;52.124;6.018;2022-07-10T02:55:52;13.60;99.90
47600;DHT22;33323;52.124;6.018;2022-07-10T02:58:19;13.60;99.90
47600;DHT22;33323;52.124;6.018;2022-07-10T03:00:47;13.70;99.90
47600;DHT22;33323;52.124;6.018;2022-07-10T03:03:14;13.70;99.90
47600;DHT22;33323;52.124;6.018;2022-07-10T03:05:46;13.70;99.90
47600;DHT22;33323;52.124;6.018;2022-07-10T03:08:14;13.80;99.90
47600;DHT22;33323;52.124;6.018;2022-07-10T03:10:41;13.80;99.90
47600;DHT22;33323;52.124;6.018;2022-07-10T03:13:08;13.90;99.90
47600;DHT22;33323;52.124;6.018;2022-07-10T03:15:35;13.90;99.90
47600;DHT22;33323;52.124;6.018;2022-07-10T03:18:02;13.80;99.90
47600;DHT22;33323;52.124;6.018;2022-07-10T03:20:29;13.90;99.90
47600;DHT22;33323;52.124;6.018;2022-07-10T03:22:56;13.90;99.90
47600;DHT22;33323;52.124;6.018;2022-07-10T03:25:23;13.90;99.90
47600;DHT22;33323;52.124;6.018;2022-07-10T03:27:50;14.00;99.90
47600;DHT22;33323;52.124;6.018;2022-07-10T03:30:17;14.00;99.90
47600;DHT22;33323;52.124;6.018;2022-07-10T03:32:46;14.10;99.90
47600;DHT22;33323;52.124;6.018;2022-07-10T03:35:13;14.10;99.90
47600;DHT22;33323;52.124;6.018;2022-07-10T03:37:40;14.10;99.80
47600;DHT22;33323;52.124;6.018;2022-07-10T03:40:07;14.20;99.80
47600;DHT22;33323;52.124;6.018;2022-07-10T03:42:35;14.20;99.90
47600;DHT22;33323;52.124;6.018;2022-07-10T03:45:02;14.20;99.90
47600;DHT22;33323;52.124;6.018;2022-07-10T03:47:30;14.20;99.90
47600;DHT22;33323;52.124;6.018;2022-07-10T03:49:57;14.20;99.80
47600;DHT22;33323;52.124;6.018;2022-07-10T03:52:24;14.20;99.90
47600;DHT22;33323;52.124;6.018;2022-07-10T03:54:53;14.10;99.90
47600;DHT22;33323;52.124;6.018;2022-07-10T03:57:20;14.20;99.80
47600;DHT22;33323;52.124;6.018;2022-07-10T04:00:06;14.20;99.60
47600;DHT22;33323;52.124;6.018;2022-07-10T04:02:43;14.20;99.40
47600;DHT22;33323;52.124;6.018;2022-07-10T04:05:10;14.20;99.70
47600;DHT22;33323;52.124;6.018;2022-07-10T04:07:37;14.30;99.40
47600;DHT22;33323;52.124;6.018;2022-07-10T04:10:05;14.20;99.30
47600;DHT22;33323;52.124;6.018;2022-07-10T04:12:33;14.20;99.40
47600;DHT22;33323;52.124;6.018;2022-07-10T04:15:00;14.20;99.40
47600;DHT22;33323;52.124;6.018;2022-07-10T04:17:27;14.20;99.30
47600;DHT22;33323;52.124;6.018;2022-07-10T04:19:54;14.30;99.40
47600;DHT22;33323;52.124;6.018;2022-07-10T04:22:21;14.30;99.50
47600;DHT22;33323;52.124;6.018;2022-07-10T04:24:50;14.30;99.80
47600;DHT22;33323;52.124;6.018;2022-07-10T04:27:17;14.40;99.80
47600;DHT22;33323;52.124;6.018;2022-07-10T04:29:44;14.50;99.60
47600;DHT22;33323;52.124;6.018;2022-07-10T04:32:11;14.50;99.60
47600;DHT22;33323;52.124;6.018;2022-07-10T04:34:38;14.50;99.50
47600;DHT22;33323;52.124;6.018;2022-07-10T04:37:06;14.50;99.40
47600;DHT22;33323;52.124;6.018;2022-07-10T04:39:34;14.60;99.50
47600;DHT22;33323;52.124;6.018;2022-07-10T04:42:02;14.60;99.60
47600;DHT22;33323;52.124;6.018;2022-07-10T04:44:30;14.70;99.40
47600;DHT22;33323;52.124;6.018;2022-07-10T04:46:57;14.70;99.60
47600;DHT22;33323;52.124;6.018;2022-07-10T04:49:25;14.80;99.30
47600;DHT22;33323;52.124;6.018;2022-07-10T04:51:52;14.80;99.30
47600;DHT22;33323;52.124;6.018;2022-07-10T04:54:19;14.80;99.20
47600;DHT22;33323;52.124;6.018;2022-07-10T04:56:46;14.90;98.80
47600;DHT22;33323;52.124;6.018;2022-07-10T04:59:13;14.90;99.10
47600;DHT22;33323;52.124;6.018;2022-07-10T05:01:40;14.90;99.10
47600;DHT22;33323;52.124;6.018;2022-07-10T05:04:08;15.00;99.10
47600;DHT22;33323;52.124;6.018;2022-07-10T05:06:40;15.00;98.40
47600;DHT22;33323;52.124;6.018;2022-07-10T05:09:07;14.90;98.60
47600;DHT22;33323;52.124;6.018;2022-07-10T05:11:34;15.00;98.80
47600;DHT22;33323;52.124;6.018;2022-07-10T05:14:02;15.00;99.20
47600;DHT22;33323;52.124;6.018;2022-07-10T05:16:29;15.00;99.20
47600;DHT22;33323;52.124;6.018;2022-07-10T05:18:56;15.20;98.60
47600;DHT22;33323;52.124;6.018;2022-07-10T05:21:23;15.20;98.60
47600;DHT22;33323;52.124;6.018;2022-07-10T05:23:51;15.20;98.40
47600;DHT22;33323;52.124;6.018;2022-07-10T05:26:19;15.30;98.30
47600;DHT22;33323;52.124;6.018;2022-07-10T05:28:46;15.20;98.20
47600;DHT22;33323;52.124;6.018;2022-07-10T05:31:13;15.20;98.30
47600;DHT22;33323;52.124;6.018;2022-07-10T05:33:40;15.40;98.60
47600;DHT22;33323;52.124;6.018;2022-07-10T05:36:08;15.40;98.60
47600;DHT22;33323;52.124;6.018;2022-07-10T05:38:35;15.50;98.20
47600;DHT22;33323;52.124;6.018;2022-07-10T05:41:02;15.60;98.40
47600;DHT22;33323;52.124;6.018;2022-07-10T05:43:30;15.60;98.30
47600;DHT22;33323;52.124;6.018;2022-07-10T05:45:57;15.60;97.90
47600;DHT22;33323;52.124;6.018;2022-07-10T05:48:24;15.50;97.40
47600;DHT22;33323;52.124;6.018;2022-07-10T05:50:52;15.50;98.00
47600;DHT22;33323;52.124;6.018;2022-07-10T05:53:19;15.50;98.50
47600;DHT22;33323;52.124;6.018;2022-07-10T05:55:47;15.70;98.30
47600;DHT22;33323;52.124;6.018;2022-07-10T05:58:15;15.70;98.60
47600;DHT22;33323;52.124;6.018;2022-07-10T06:00:44;15.70;98.20
47600;DHT22;33323;52.124;6.018;2022-07-10T06:03:12;15.80;98.30
47600;DHT22;33323;52.124;6.018;2022-07-10T06:05:39;15.90;98.00
47600;DHT22;33323;52.124;6.018;2022-07-10T06:08:06;15.90;98.30
47600;DHT22;33323;52.124;6.018;2022-07-10T06:10:33;15.90;98.70
47600;DHT22;33323;52.124;6.018;2022-07-10T06:13:00;15.80;98.70
47600;DHT22;33323;52.124;6.018;2022-07-10T06:15:27;15.70;99.40
47600;DHT22;33323;52.124;6.018;2022-07-10T06:17:57;15.60;99.80
47600;DHT22;33323;52.124;6.018;2022-07-10T06:20:25;15.60;99.90
47600;DHT22;33323;52.124;6.018;2022-07-10T06:22:52;15.60;99.40
47600;DHT22;33323;52.124;6.018;2022-07-10T06:25:19;15.50;99.80
47600;DHT22;33323;52.124;6.018;2022-07-10T06:27:46;15.60;99.90
47600;DHT22;33323;52.124;6.018;2022-07-10T06:30:14;15.70;99.90
47600;DHT22;33323;52.124;6.018;2022-07-10T06:32:41;15.60;99.90
47600;DHT22;33323;52.124;6.018;2022-07-10T06:35:08;15.70;99.90
47600;DHT22;33323;52.124;6.018;2022-07-10T06:37:35;15.60;99.90
47600;DHT22;33323;52.124;6.018;2022-07-10T06:40:03;15.60;99.90
47600;DHT22;33323;52.124;6.018;2022-07-10T06:42:31;15.50;99.90
47600;DHT22;33323;52.124;6.018;2022-07-10T06:44:59;15.50;99.90
47600;DHT22;33323;52.124;6.018;2022-07-10T06:47:26;15.40;99.90
47600;DHT22;33323;52.124;6.018;2022-07-10T06:50:12;15.30;99.90
47600;DHT22;33323;52.124;6.018;2022-07-10T06:52:39;15.20;99.90
47600;DHT22;33323;52.124;6.018;2022-07-10T06:55:07;15.10;99.90
47600;DHT22;33323;52.124;6.018;2022-07-10T06:57:34;15.00;99.90
47600;DHT22;33323;52.124;6.018;2022-07-10T07:00:02;14.90;99.90
47600;DHT22;33323;52.124;6.018;2022-07-10T07:02:30;14.90;99.90
47600;DHT22;33323;52.124;6.018;2022-07-10T07:04:57;14.90;99.90
47600;DHT22;33323;52.124;6.018;2022-07-10T07:07:24;14.90;99.90
47600;DHT22;33323;52.124;6.018;2022-07-10T07:09:51;14.90;99.90
47600;DHT22;33323;52.124;6.018;2022-07-10T07:12:19;15.00;99.90
47600;DHT22;33323;52.124;6.018;2022-07-10T07:14:46;15.00;99.90
47600;DHT22;33323;52.124;6.018;2022-07-10T07:17:14;14.90;99.90
47600;DHT22;33323;52.124;6.018;2022-07-10T07:19:48;14.90;99.90
47600;DHT22;33323;52.124;6.018;2022-07-10T07:22:34;14.90;99.90
47600;DHT22;33323;52.124;6.018;2022-07-10T07:25:20;14.90;99.90
47600;DHT22;33323;52.124;6.018;2022-07-10T07:27:47;14.90;99.90
47600;DHT22;33323;52.124;6.018;2022-07-10T07:30:15;14.90;99.90
47600;DHT22;33323;52.124;6.018;2022-07-10T07:32:43;15.00;99.90
47600;DHT22;33323;52.124;6.018;2022-07-10T07:35:13;15.20;99.90
47600;DHT22;33323;52.124;6.018;2022-07-10T07:37:41;15.30;99.90
47600;DHT22;33323;52.124;6.018;2022-07-10T07:40:12;15.30;99.90
47600;DHT22;33323;52.124;6.018;2022-07-10T07:42:40;15.30;99.90
47600;DHT22;33323;52.124;6.018;2022-07-10T07:45:10;15.40;99.90
47600;DHT22;33323;52.124;6.018;2022-07-10T07:47:45;15.40;99.90
47600;DHT22;33323;52.124;6.018;2022-07-10T07:50:23;15.40;99.90
47600;DHT22;33323;52.124;6.018;2022-07-10T07:52:53;15.10;99.90
47600;DHT22;33323;52.124;6.018;2022-07-10T07:55:21;15.30;99.90
47600;DHT22;33323;52.124;6.018;2022-07-10T07:57:52;15.40;99.90
47600;DHT22;33323;52.124;6.018;2022-07-10T08:00:22;15.40;99.90
47600;DHT22;33323;52.124;6.018;2022-07-10T08:02:50;15.30;99.90
47600;DHT22;33323;52.124;6.018;2022-07-10T08:05:18;15.40;99.90
47600;DHT22;33323;52.124;6.018;2022-07-10T08:07:49;15.50;99.90
47600;DHT22;33323;52.124;6.018;2022-07-10T08:10:20;15.60;99.90
47600;DHT22;33323;52.124;6.018;2022-07-10T08:12:49;15.50;99.90
47600;DHT22;33323;52.124;6.018;2022-07-10T08:15:18;15.40;99.90
47600;DHT22;33323;52.124;6.018;2022-07-10T08:17:53;15.30;99.90
47600;DHT22;33323;52.124;6.018;2022-07-10T08:20:23;15.40;99.90
47600;DHT22;33323;52.124;6.018;2022-07-10T08:22:51;15.60;99.90
47600;DHT22;33323;52.124;6.018;2022-07-10T08:25:27;15.80;99.90
47600;DHT22;33323;52.124;6.018;2022-07-10T08:28:01;15.70;99.90
47600;DHT22;33323;52.124;6.018;2022-07-10T08:30:28;15.80;99.90
47600;DHT22;33323;52.124;6.018;2022-07-10T08:32:56;15.80;99.90
47600;DHT22;33323;52.124;6.018;2022-07-10T08:35:23;15.50;99.90
47600;DHT22;33323;52.124;6.018;2022-07-10T08:37:50;15.80;99.90
47600;DHT22;33323;52.124;6.018;2022-07-10T08:40:17;16.00;99.90
47600;DHT22;33323;52.124;6.018;2022-07-10T08:42:48;16.10;99.90
47600;DHT22;33323;52.124;6.018;2022-07-10T08:45:15;16.20;99.90
47600;DHT22;33323;52.124;6.018;2022-07-10T08:47:43;16.10;99.90
47600;DHT22;33323;52.124;6.018;2022-07-10T08:50:22;16.10;99.90
47600;DHT22;33323;52.124;6.018;2022-07-10T08:53:09;16.10;99.90
47600;DHT22;33323;52.124;6.018;2022-07-10T08:55:40;16.20;99.90
47600;DHT22;33323;52.124;6.018;2022-07-10T08:58:08;16.30;99.90
47600;DHT22;33323;52.124;6.018;2022-07-10T09:00:36;16.70;99.90
47600;DHT22;33323;52.124;6.018;2022-07-10T09:03:03;16.80;99.90
47600;DHT22;33323;52.124;6.018;2022-07-10T09:05:30;16.90;99.90
47600;DHT22;33323;52.124;6.018;2022-07-10T09:07:57;17.10;99.90
47600;DHT22;33323;52.124;6.018;2022-07-10T09:10:25;17.20;99.90
47600;DHT22;33323;52.124;6.018;2022-07-10T09:12:55;17.50;99.90
47600;DHT22;33323;52.124;6.018;2022-07-10T09:15:29;17.50;99.90
47600;DHT22;33323;52.124;6.018;2022-07-10T09:18:03;17.10;99.90
47600;DHT22;33323;52.124;6.018;2022-07-10T09:20:36;16.90;99.90
47600;DHT22;33323;52.124;6.018;2022-07-10T09:23:23;16.80;99.90
47600;DHT22;33323;52.124;6.018;2022-07-10T09:25:53;16.80;99.90
47600;DHT22;33323;52.124;6.018;2022-07-10T09:28:21;16.50;99.90
47600;DHT22;33323;52.124;6.018;2022-07-10T09:30:50;16.50;99.90
47600;DHT22;33323;52.124;6.018;2022-07-10T09:33:22;16.50;99.90
47600;DHT22;33323;52.124;6.018;2022-07-10T09:36:06;16.70;99.90
47600;DHT22;33323;52.124;6.018;2022-07-10T09:41:19;16.70;99.90
47600;DHT22;33323;52.124;6.018;2022-07-10T09:44:12;16.80;99.90
47600;DHT22;33323;52.124;6.018;2022-07-10T09:46:41;16.80;99.90
47600;DHT22;33323;52.124;6.018;2022-07-10T09:49:10;16.90;99.90
47600;DHT22;33323;52.124;6.018;2022-07-10T09:51:46;17.00;99.90
47600;DHT22;33323;52.124;6.018;2022-07-10T09:54:16;17.10;99.90
47600;DHT22;33323;52.124;6.018;2022-07-10T09:56:45;17.40;99.90
47600;DHT22;33323;52.124;6.018;2022-07-10T09:59:18;17.30;99.90
47600;DHT22;33323;52.124;6.018;2022-07-10T10:01:47;17.40;99.90
47600;DHT22;33323;52.124;6.018;2022-07-10T10:04:21;17.60;99.90
47600;DHT22;33323;52.124;6.018;2022-07-10T10:06:54;17.90;99.90
47600;DHT22;33323;52.124;6.018;2022-07-10T10:09:29;17.80;99.90
47600;DHT22;33323;52.124;6.018;2022-07-10T10:12:06;17.80;99.90
47600;DHT22;33323;52.124;6.018;2022-07-10T10:14:34;17.90;99.90
47600;DHT22;33323;52.124;6.018;2022-07-10T10:17:04;17.80;99.70
47600;DHT22;33323;52.124;6.018;2022-07-10T10:19:32;17.80;99.90
47600;DHT22;33323;52.124;6.018;2022-07-10T10:22:19;17.70;99.90
47600;DHT22;33323;52.124;6.018;2022-07-10T10:24:48;17.60;99.90
47600;DHT22;33323;52.124;6.018;2022-07-10T10:27:15;17.60;99.90
47600;DHT22;33323;52.124;6.018;2022-07-10T10:29:44;17.40;99.90
47600;DHT22;33323;52.124;6.018;2022-07-10T10:32:12;17.40;99.90
47600;DHT22;33323;52.124;6.018;2022-07-10T10:34:47;17.40;99.90
47600;DHT22;33323;52.124;6.018;2022-07-10T10:37:38;17.30;99.90
47600;DHT22;33323;52.124;6.018;2022-07-10T10:40:09;17.30;99.90
47600;DHT22;33323;52.124;6.018;2022-07-10T10:42:39;17.50;99.90
47600;DHT22;33323;52.124;6.018;2022-07-10T10:45:24;17.50;99.90
47600;DHT22;33323;52.124;6.018;2022-07-10T10:48:16;17.60;99.80
47600;DHT22;33323;52.124;6.018;2022-07-10T10:51:04;17.60;99.90
47600;DHT22;33323;52.124;6.018;2022-07-10T10:53:31;17.90;99.90
47600;DHT22;33323;52.124;6.018;2022-07-10T10:58:37;18.40;98.90
47600;DHT22;33323;52.124;6.018;2022-07-10T11:06:46;18.50;97.80
47600;DHT22;33323;52.124;6.018;2022-07-10T11:09:28;18.90;97.40
47600;DHT22;33323;52.124;6.018;2022-07-10T11:12:10;19.10;98.10
47600;DHT22;33323;52.124;6.018;2022-07-10T11:14:45;19.40;95.30
47600;DHT22;33323;52.124;6.018;2022-07-10T11:17:14;19.40;94.00
47600;DHT22;33323;52.124;6.018;2022-07-10T11:19:41;19.30;96.50
47600;DHT22;33323;52.124;6.018;2022-07-10T11:28:04;18.70;97.30
47600;DHT22;33323;52.124;6.018;2022-07-10T11:31:05;18.60;96.90
47600;DHT22;33323;52.124;6.018;2022-07-10T11:33:43;18.70;95.70
47600;DHT22;33323;52.124;6.018;2022-07-10T11:38:43;19.40;96.80
47600;DHT22;33323;52.124;6.018;2022-07-10T11:41:15;19.80;96.00
47600;DHT22;33323;52.124;6.018;2022-07-10T11:43:53;19.70;93.20
47600;DHT22;33323;52.124;6.018;2022-07-10T11:46:23;19.70;94.40
47600;DHT22;33323;52.124;6.018;2022-07-10T11:48:52;19.60;93.30
47600;DHT22;33323;52.124;6.018;2022-07-10T11:51:28;19.20;94.30
47600;DHT22;33323;52.124;6.018;2022-07-10T11:54:07;18.90;95.10
47600;DHT22;33323;52.124;6.018;2022-07-10T11:56:48;18.80;96.10
47600;DHT22;33323;52.124;6.018;2022-07-10T11:59:16;19.00;95.10
47600;DHT22;33323;52.124;6.018;2022-07-10T12:01:51;19.30;95.20
47600;DHT22;33323;52.124;6.018;2022-07-10T12:04:21;19.60;91.60
47600;DHT22;33323;52.124;6.018;2022-07-10T12:06:51;19.50;91.80
47600;DHT22;33323;52.124;6.018;2022-07-10T12:09:21;19.80;93.90
47600;DHT22;33323;52.124;6.018;2022-07-10T12:11:59;20.00;92.50
47600;DHT22;33323;52.124;6.018;2022-07-10T12:14:34;20.20;93.00
47600;DHT22;33323;52.124;6.018;2022-07-10T12:17:10;20.00;90.70
47600;DHT22;33323;52.124;6.018;2022-07-10T12:19:38;19.60;90.70
47600;DHT22;33323;52.124;6.018;2022-07-10T12:22:06;19.40;92.10
47600;DHT22;33323;52.124;6.018;2022-07-10T12:24:34;19.40;92.00
47600;DHT22;33323;52.124;6.018;2022-07-10T12:27:01;19.40;92.70
47600;DHT22;33323;52.124;6.018;2022-07-10T12:29:29;19.30;92.00
47600;DHT22;33323;52.124;6.018;2022-07-10T12:31:58;19.40;93.20
47600;DHT22;33323;52.124;6.018;2022-07-10T12:34:39;19.60;92.50
47600;DHT22;33323;52.124;6.018;2022-07-10T12:37:11;19.80;91.30
47600;DHT22;33323;52.124;6.018;2022-07-10T12:39:50;19.80;90.60
47600;DHT22;33323;52.124;6.018;2022-07-10T12:42:28;19.60;91.60
47600;DHT22;33323;52.124;6.018;2022-07-10T12:45:10;19.60;92.50
47600;DHT22;33323;52.124;6.018;2022-07-10T12:47:47;19.60;92.80
47600;DHT22;33323;52.124;6.018;2022-07-10T12:50:16;19.50;91.20
47600;DHT22;33323;52.124;6.018;2022-07-10T12:52:44;19.50;91.40
47600;DHT22;33323;52.124;6.018;2022-07-10T12:55:19;19.50;91.00
47600;DHT22;33323;52.124;6.018;2022-07-10T12:57:55;19.60;91.00
47600;DHT22;33323;52.124;6.018;2022-07-10T13:00:31;19.50;90.60
47600;DHT22;33323;52.124;6.018;2022-07-10T13:03:06;19.50;91.00
47600;DHT22;33323;52.124;6.018;2022-07-10T13:05:35;19.40;90.10
47600;DHT22;33323;52.124;6.018;2022-07-10T13:08:16;19.50;89.10
47600;DHT22;33323;52.124;6.018;2022-07-10T13:10:58;19.40;90.00
47600;DHT22;33323;52.124;6.018;2022-07-10T13:13:25;19.70;90.40
47600;DHT22;33323;52.124;6.018;2022-07-10T13:15:52;19.90;89.30
47600;DHT22;33323;52.124;6.018;2022-07-10T13:18:26;19.90;90.00
47600;DHT22;33323;52.124;6.018;2022-07-10T13:20:55;19.90;86.60
47600;DHT22;33323;52.124;6.018;2022-07-10T13:23:28;19.90;88.70
47600;DHT22;33323;52.124;6.018;2022-07-10T13:25:56;20.00;87.50
47600;DHT22;33323;52.124;6.018;2022-07-10T13:28:23;20.00;84.20
47600;DHT22;33323;52.124;6.018;2022-07-10T13:30:50;20.10;86.60
47600;DHT22;33323;52.124;6.018;2022-07-10T13:33:18;20.40;87.00
47600;DHT22;33323;52.124;6.018;2022-07-10T13:35:45;20.40;85.30
47600;DHT22;33323;52.124;6.018;2022-07-10T13:38:12;20.50;84.10
47600;DHT22;33323;52.124;6.018;2022-07-10T13:40:43;20.50;83.70
47600;DHT22;33323;52.124;6.018;2022-07-10T13:43:11;20.60;83.60
47600;DHT22;33323;52.124;6.018;2022-07-10T13:45:47;20.60;81.10
47600;DHT22;33323;52.124;6.018;2022-07-10T13:48:15;20.70;86.60
47600;DHT22;33323;52.124;6.018;2022-07-10T13:50:44;20.90;82.90
47600;DHT22;33323;52.124;6.018;2022-07-10T13:53:14;21.00;77.10
47600;DHT22;33323;52.124;6.018;2022-07-10T13:55:41;21.00;79.60
47600;DHT22;33323;52.124;6.018;2022-07-10T13:58:09;21.40;78.50
47600;DHT22;33323;52.124;6.018;2022-07-10T14:00:37;21.80;81.60
47600;DHT22;33323;52.124;6.018;2022-07-10T14:03:04;22.00;77.90
47600;DHT22;33323;52.124;6.018;2022-07-10T14:05:33;21.70;74.20
47600;DHT22;33323;52.124;6.018;2022-07-10T14:08:00;21.90;76.90
47600;DHT22;33323;52.124;6.018;2022-07-10T14:10:28;21.90;72.20
47600;DHT22;33323;52.124;6.018;2022-07-10T14:12:55;21.80;73.90
47600;DHT22;33323;52.124;6.018;2022-07-10T14:15:23;21.50;75.00
47600;DHT22;33323;52.124;6.018;2022-07-10T14:17:50;21.60;73.40
47600;DHT22;33323;52.124;6.018;2022-07-10T14:20:18;21.50;74.40
47600;DHT22;33323;52.124;6.018;2022-07-10T14:22:45;21.30;73.50
47600;DHT22;33323;52.124;6.018;2022-07-10T14:25:14;21.40;74.40
47600;DHT22;33323;52.124;6.018;2022-07-10T14:27:41;21.50;76.20
47600;DHT22;33323;52.124;6.018;2022-07-10T14:30:09;21.60;74.70
47600;DHT22;33323;52.124;6.018;2022-07-10T14:32:36;21.80;75.70
47600;DHT22;33323;52.124;6.018;2022-07-10T14:35:04;22.00;76.30
47600;DHT22;33323;52.124;6.018;2022-07-10T14:37:31;21.90;76.10
47600;DHT22;33323;52.124;6.018;2022-07-10T14:39:58;21.70;75.80
47600;DHT22;33323;52.124;6.018;2022-07-10T14:42:25;21.70;71.60
47600;DHT22;33323;52.124;6.018;2022-07-10T14:44:53;21.40;75.50
47600;DHT22;33323;52.124;6.018;2022-07-10T14:47:20;21.40;74.00
47600;DHT22;33323;52.124;6.018;2022-07-10T14:49:47;21.40;77.00
47600;DHT22;33323;52.124;6.018;2022-07-10T14:52:14;21.60;77.00
47600;DHT22;33323;52.124;6.018;2022-07-10T14:54:43;21.50;74.90
47600;DHT22;33323;52.124;6.018;2022-07-10T14:57:10;21.40;73.90
47600;DHT22;33323;52.124;6.018;2022-07-10T14:59:39;21.30;75.50
47600;DHT22;33323;52.124;6.018;2022-07-10T15:02:06;21.40;77.50
47600;DHT22;33323;52.124;6.018;2022-07-10T15:04:33;21.70;79.30
47600;DHT22;33323;52.124;6.018;2022-07-10T15:07:00;21.90;76.90
47600;DHT22;33323;52.124;6.018;2022-07-10T15:09:28;21.90;74.20
47600;DHT22;33323;52.124;6.018;2022-07-10T15:11:55;21.90;78.30
47600;DHT22;33323;52.124;6.018;2022-07-10T15:14:22;22.10;73.60
47600;DHT22;33323;52.124;6.018;2022-07-10T15:16:49;21.90;74.70
47600;DHT22;33323;52.124;6.018;2022-07-10T15:19:16;21.80;73.00
47600;DHT22;33323;52.124;6.018;2022-07-10T15:21:43;21.80;75.60
47600;DHT22;33323;52.124;6.018;2022-07-10T15:24:10;21.80;73.50
47600;DHT22;33323;52.124;6.018;2022-07-10T15:26:37;21.60;74.50
47600;DHT22;33323;52.124;6.018;2022-07-10T15:29:04;21.40;76.20
47600;DHT22;33323;52.124;6.018;2022-07-10T15:31:31;21.50;77.50
47600;DHT22;33323;52.124;6.018;2022-07-10T15:33:58;21.70;80.30
47600;DHT22;33323;52.124;6.018;2022-07-10T15:36:28;22.10;76.00
47600;DHT22;33323;52.124;6.018;2022-07-10T15:38:55;22.20;75.00
47600;DHT22;33323;52.124;6.018;2022-07-10T15:41:22;22.10;75.30
47600;DHT22;33323;52.124;6.018;2022-07-10T15:43:48;22.00;70.50
47600;DHT22;33323;52.124;6.018;2022-07-10T15:46:15;21.70;72.50
47600;DHT22;33323;52.124;6.018;2022-07-10T15:48:43;21.60;74.60
47600;DHT22;33323;52.124;6.018;2022-07-10T15:51:10;21.50;75.50
47600;DHT22;33323;52.124;6.018;2022-07-10T15:53:37;21.40;79.70
47600;DHT22;33323;52.124;6.018;2022-07-10T15:56:04;21.40;76.70
47600;DHT22;33323;52.124;6.018;2022-07-10T15:58:31;21.40;78.70
47600;DHT22;33323;52.124;6.018;2022-07-10T16:00:59;21.30;77.30
47600;DHT22;33323;52.124;6.018;2022-07-10T16:03:27;21.40;80.10